Myrtle Beach, SC

5:12 AM EDT on August 20, 2014 (GMT -0400)
Grand Strand | Change Station
CLOSE
Current Station
Airport
Location: North Myrtle Beach,
Elevation: 33 ft
Nearby Weather Stations

Elev 33 ft 33.81 °N, 78.72 °W | Updated 19 minutes ago

Partly Cloudy
Partly Cloudy
75 °F
Feels Like 75 °F
N
5
Wind Variable Wind from West

Today
High -- | Low -- °F
--% Chance of Precip.
Yesterday
High -- | Low -- °F
Precip. -- in
6:40 AM 7:55 PM
Waning Crescent, 23% visible
Pressure 29.89 in
Visibility 8.0 miles
Clouds Few 10000 ft
Dew Point 74 °F
Humidity 96%
Rainfall 0.00 in
Snow Depth Not available.
UV 0 out of 12
Pollen 6.70 out of 12
Air Quality Not available.
Flu Activity Not available.
METAR KCRE 200853Z AUTO 28004KT 8SM FEW100 24/23 A2989 RMK AO2 SLP121 T02390233 53001

More Conditions Fewer Conditions

Pressure 29.89 in
Visibility 8.0 miles
Clouds Few 10000 ft
Dew Point 74 °F
Humidity 96%
Rainfall 0.00 in
Snow Depth Not available.
UV 0 out of 12
Pollen 6.70 out of 12
Air Quality Not available.
Flu Activity Not available.
METAR KCRE 200853Z AUTO 28004KT 8SM FEW100 24/23 A2989 RMK AO2 SLP121 T02390233 53001

More Conditions Fewer Conditions

10-Day Weather Forecast

Almanac

Astronomy

Aug. 20, 2014 Rise Set
Actual Time 6:40 AM EDT 7:55 PM EDT
Civil Twilight 6:14 AM EDT 8:21 PM EDT
Nautical Twilight 5:43 AM EDT 8:52 PM EDT
Astronomical Twilight 5:11 AM EDT 9:25 PM EDT
Moon 2:24 AM EDT 4:34 PM EDT
Length of Visible Light 14h 07m
Length of Day
13h 15m
Tomorrow will be 1m 54s shorter.
Waning Crescent, 23% of the Moon is Illuminated
Today
Waning Crescent
Aug 25
New
Sep 2
First Quarter
Sep 8
Full
Sep 15
Last Quarter

Today's Extremes

State Highs State Lows

Community

WunderPhotos

Upload Photos

1,745,604 photos uploaded!

Nearby

Snow Depth

Station Depth Elevation
No new snow has been reported.

Earthquake Activity

City Distance Mag. Time & Date
No recent earthquake activity has been reported nearby.
Minimum magnitude displayed is 2.5.

Coastal Water Temperatures

Place Temperature
Springmaid Pier, SC 82.9 °F

Nearby Weather Stations